Página principal
METAR-TAF:

METAR-TAF

Aeroportos :

Aizawl, Índia

latitude: 23-50-18N, longitude: 92-37-13E, altura: 405 m

Observação actual do tempo

O boletim foi feito há 18 minutos, às 05:00 UTC
Vento 3 kt de nordeste
Temperatura 20°C
Humidade 56%
Pressão 1018 hPa
Visibilidade: 5000 m
bruma

METAR: VELP 230500Z 05003KT 5000 HZ NSC 20/11 Q1018 NOSIG

Hora: 10:48 (05:18 UTC)

Previsão

O boletim foi feito há 3 horas e 18 minutos, às 02:00 UTC
Previsão válida de 23 às 03 UTC a 23 às 12 UTC
Vento 7 kt de su-sudeste
Visibilidade: 4000 m
neblina
Tornando-se
de 23 às 04 UTC a 23 às 06 UTC
Visibilidade: 5000 m
bruma

TAF: VELP 230200Z 2303/2312 16007KT 4000 BR NSC BECMG 2304/2306 5000 HZ

Observações e previsões do tempo de mais de 4000 aeroportos (mensagens METAR e TAF).

As estações disponíveis são os pontos amarelos e vermelhos sobre o mapa.

Mova o rato sobre o mapa para ver o nome da estação.

Depois clique no ponto para visualizar as observações e previsões meteorológicas.

Para alterar o mapa : clique nos botões verdes com uma cruz preta para aumentar o zoom; no botão verde com uma pitada de zoom; ou nas setas verdes para mapas adjacentes.


METAR-TAF: